Time;durP1;ratioP1;P1;durP2;ratioP2;P2;SDS_P1;SDS_P2;PMS_P1;PMS_P2;Temp;Humidity;BMP_temperature;BMP_pressure;BME280_temperature;BME280_humidity;BME280_pressure;Samples;Min_cycle;Max_cycle;Signal;HPM_P1;HPM_P2
2022/07/04 00:00:54;;;;;;;3.72;1.40;;;;;;;;;;5006773;28;22018;-84
2022/07/04 00:03:20;;;;;;;3.47;1.70;;;;;;;;;;5007906;28;20117;-85
2022/07/04 00:05:46;;;;;;;3.42;1.52;;;;;;;;;;5006554;28;20045;-84
2022/07/04 00:08:12;;;;;;;2.40;1.40;;;;;;;;;;5007676;28;20038;-86
2022/07/04 00:10:38;;;;;;;5.13;1.80;;;;;;;;;;5008882;28;20080;-85
2022/07/04 00:13:05;;;;;;;3.53;1.98;;;;;;;;;;5008812;28;20073;-85
2022/07/04 00:15:31;;;;;;;2.85;1.65;;;;;;;;;;5005124;28;20494;-84
2022/07/04 00:17:57;;;;;;;3.85;1.48;;;;;;;;;;5008328;28;20133;-84
2022/07/04 00:20:23;;;;;;;3.55;1.75;;;;;;;;;;5008160;28;20133;-85
2022/07/04 00:22:49;;;;;;;2.20;1.70;;;;;;;;;;5009147;28;20430;-86
2022/07/04 00:25:15;;;;;;;1.63;1.45;;;;;;;;;;5008348;28;20137;-84
2022/07/04 00:27:41;;;;;;;3.22;1.60;;;;;;;;;;5006007;28;20182;-83
2022/07/04 00:30:08;;;;;;;2.25;1.60;;;;;;;;;;5004396;28;20077;-85
2022/07/04 00:32:36;;;;;;;1.67;1.48;;;;;;;;;;5008461;28;20140;-84
2022/07/04 00:35:03;;;;;;;1.95;1.50;;;;;;;;;;5006036;28;20129;-83
2022/07/04 00:37:29;;;;;;;4.85;1.48;;;;;;;;;;5007240;28;20057;-84
2022/07/04 00:39:55;;;;;;;1.73;1.40;;;;;;;;;;5004112;28;20037;-85
2022/07/04 00:42:21;;;;;;;4.18;1.63;;;;;;;;;;5002505;28;20064;-84
2022/07/04 00:44:47;;;;;;;3.03;1.40;;;;;;;;;;5000110;28;20042;-86
2022/07/04 00:47:13;;;;;;;3.58;1.63;;;;;;;;;;5002733;28;20061;-85
2022/07/04 00:49:40;;;;;;;2.67;1.50;;;;;;;;;;5008441;28;20528;-85
2022/07/04 00:52:06;;;;;;;2.92;1.60;;;;;;;;;;5005396;28;20085;-83
2022/07/04 00:54:32;;;;;;;2.00;1.50;;;;;;;;;;5007754;28;20041;-83
2022/07/04 00:56:59;;;;;;;3.63;1.80;;;;;;;;;;5006112;28;20058;-85
2022/07/04 00:59:25;;;;;;;4.53;1.67;;;;;;;;;;5003818;28;20176;-85
2022/07/04 01:01:51;;;;;;;2.95;1.55;;;;;;;;;;5000773;28;20042;-85
2022/07/04 01:04:18;;;;;;;5.47;1.80;;;;;;;;;;5006270;28;20042;-84
2022/07/04 01:06:47;;;;;;;4.13;1.55;;;;;;;;;;5007514;28;20055;-84
2022/07/04 01:09:13;;;;;;;4.05;1.80;;;;;;;;;;5007589;28;20045;-84
2022/07/04 01:11:40;;;;;;;3.92;1.88;;;;;;;;;;5005447;28;20247;-85
2022/07/04 01:14:06;;;;;;;2.58;1.60;;;;;;;;;;5006538;28;20469;-85
2022/07/04 01:16:32;;;;;;;4.10;1.50;;;;;;;;;;5007089;28;20473;-84
2022/07/04 01:18:58;;;;;;;4.07;1.70;;;;;;;;;;5008150;28;20099;-85
2022/07/04 01:21:25;;;;;;;3.05;1.63;;;;;;;;;;5000696;28;20062;-85
2022/07/04 01:23:51;;;;;;;4.05;1.80;;;;;;;;;;5004845;28;20038;-84
2022/07/04 01:26:21;;;;;;;3.88;2.00;;;;;;;;;;5003902;28;20052;-85
2022/07/04 01:28:47;;;;;;;3.50;1.60;;;;;;;;;;4999496;28;20041;-85
2022/07/04 01:31:13;;;;;;;3.17;1.80;;;;;;;;;;5002848;28;20102;-85
2022/07/04 01:33:39;;;;;;;4.20;1.67;;;;;;;;;;4997386;28;20045;-85
2022/07/04 01:36:05;;;;;;;3.25;1.92;;;;;;;;;;5005695;28;20060;-83
2022/07/04 01:38:31;;;;;;;3.50;1.73;;;;;;;;;;5005309;28;20041;-84
2022/07/04 01:40:57;;;;;;;3.55;1.70;;;;;;;;;;4999585;28;20434;-84
2022/07/04 01:43:26;;;;;;;3.33;1.50;;;;;;;;;;5000882;28;20060;-86
2022/07/04 01:45:52;;;;;;;4.65;1.80;;;;;;;;;;5001613;28;20132;-86
2022/07/04 01:48:18;;;;;;;4.03;1.80;;;;;;;;;;5003465;28;20069;-85
2022/07/04 01:50:44;;;;;;;5.20;1.95;;;;;;;;;;5004287;28;20049;-84
2022/07/04 01:53:10;;;;;;;4.47;1.70;;;;;;;;;;5002452;28;20049;-84
2022/07/04 01:55:36;;;;;;;4.88;1.80;;;;;;;;;;5004372;28;20041;-84
2022/07/04 01:58:03;;;;;;;2.38;1.50;;;;;;;;;;5005335;28;20045;-84
2022/07/04 02:03:14;;;;;;;2.65;1.65;;;;;;;;;;5003142;28;20050;-85
2022/07/04 02:05:40;;;;;;;3.40;1.45;;;;;;;;;;5004800;28;20049;-84
2022/07/04 02:08:08;;;;;;;4.43;1.80;;;;;;;;;;5004659;28;20045;-85
2022/07/04 02:10:34;;;;;;;1.70;1.60;;;;;;;;;;5006414;28;20038;-83
2022/07/04 02:13:01;;;;;;;4.20;1.80;;;;;;;;;;5001553;28;20053;-84
2022/07/04 02:15:31;;;;;;;2.97;1.70;;;;;;;;;;5004167;28;20045;-86
2022/07/04 02:17:57;;;;;;;3.40;1.77;;;;;;;;;;5007543;28;20431;-84
2022/07/04 02:20:23;;;;;;;2.67;1.52;;;;;;;;;;4968260;28;1075292;-85
2022/07/04 02:22:49;;;;;;;1.98;1.45;;;;;;;;;;5004311;28;20076;-84
2022/07/04 02:25:15;;;;;;;4.70;1.67;;;;;;;;;;5005091;28;20049;-84
2022/07/04 02:27:41;;;;;;;2.97;1.65;;;;;;;;;;5007255;28;20371;-85
2022/07/04 02:30:08;;;;;;;4.57;1.40;;;;;;;;;;5002604;28;20053;-85
2022/07/04 02:32:35;;;;;;;3.08;1.48;;;;;;;;;;5022720;28;20406;-84
2022/07/04 02:35:01;;;;;;;3.45;1.50;;;;;;;;;;5005897;28;20398;-82
2022/07/04 02:37:27;;;;;;;1.75;1.60;;;;;;;;;;5005169;28;20046;-83
2022/07/04 02:39:53;;;;;;;6.53;1.80;;;;;;;;;;5006023;28;20049;-84
2022/07/04 02:42:19;;;;;;;3.70;1.80;;;;;;;;;;5002505;28;20581;-85
2022/07/04 02:44:45;;;;;;;3.78;1.60;;;;;;;;;;5007720;28;20140;-83
2022/07/04 02:47:11;;;;;;;2.55;1.50;;;;;;;;;;5001233;28;20055;-84
2022/07/04 02:49:37;;;;;;;3.30;1.80;;;;;;;;;;5003397;28;20046;-83
2022/07/04 02:52:06;;;;;;;2.55;1.70;;;;;;;;;;5003989;28;20048;-82
2022/07/04 02:54:32;;;;;;;7.60;1.80;;;;;;;;;;5005926;28;20485;-82
2022/07/04 02:56:58;;;;;;;3.13;1.70;;;;;;;;;;5005334;28;20093;-84
2022/07/04 02:59:24;;;;;;;2.28;1.60;;;;;;;;;;5003552;28;20050;-84
2022/07/04 03:01:50;;;;;;;6.80;1.83;;;;;;;;;;5000412;28;20444;-84
2022/07/04 03:04:17;;;;;;;2.40;1.70;;;;;;;;;;5002522;28;20516;-85
2022/07/04 03:06:45;;;;;;;2.08;1.45;;;;;;;;;;5005423;28;20049;-84
2022/07/04 03:09:11;;;;;;;4.18;1.80;;;;;;;;;;5004408;28;20038;-83
2022/07/04 03:11:37;;;;;;;2.95;1.65;;;;;;;;;;5006145;28;20092;-84
2022/07/04 03:14:03;;;;;;;2.95;2.00;;;;;;;;;;5006949;28;20042;-83
2022/07/04 03:16:29;;;;;;;3.60;1.80;;;;;;;;;;5002720;28;20053;-85
2022/07/04 03:18:56;;;;;;;3.00;1.83;;;;;;;;;;5007747;28;20038;-83
2022/07/04 03:21:22;;;;;;;3.53;1.90;;;;;;;;;;5007617;28;20124;-85
2022/07/04 03:23:57;;;;;;;3.38;2.10;;;;;;;;;;5009497;28;20049;-84
2022/07/04 03:26:27;;;;;;;2.00;1.80;;;;;;;;;;5006488;28;20065;-85
2022/07/04 03:28:54;;;;;;;3.88;2.05;;;;;;;;;;5003887;28;20034;-83
2022/07/04 03:31:20;;;;;;;2.72;2.03;;;;;;;;;;5025864;28;20504;-85
2022/07/04 03:33:51;;;;;;;3.47;2.10;;;;;;;;;;5001933;28;20409;-85
2022/07/04 03:36:18;;;;;;;5.38;2.45;;;;;;;;;;5006379;28;20095;-84
2022/07/04 03:38:44;;;;;;;3.28;2.20;;;;;;;;;;5009812;28;20052;-83
2022/07/04 03:41:10;;;;;;;3.25;2.22;;;;;;;;;;5004101;28;20037;-83
2022/07/04 03:43:36;;;;;;;4.80;2.60;;;;;;;;;;5008035;28;20050;-84
2022/07/04 03:46:02;;;;;;;4.05;2.40;;;;;;;;;;5004924;28;20100;-83
2022/07/04 03:48:28;;;;;;;4.28;2.03;;;;;;;;;;5004244;28;20049;-84
2022/07/04 03:50:54;;;;;;;3.42;2.40;;;;;;;;;;5002109;28;20490;-84
2022/07/04 03:53:21;;;;;;;4.00;2.30;;;;;;;;;;5005863;28;20060;-83
2022/07/04 03:55:47;;;;;;;2.97;2.03;;;;;;;;;;5001118;28;20057;-84
2022/07/04 03:58:13;;;;;;;2.90;2.15;;;;;;;;;;5004360;28;20038;-85
2022/07/04 04:00:39;;;;;;;4.47;2.17;;;;;;;;;;5005861;28;20422;-85
2022/07/04 04:05:26;;;;;;;2.20;2.00;;;;;;;;;;5006722;28;20041;-84
2022/07/04 04:05:51;;;;;;;2.20;2.00;;;;;;;;;;5008173;28;20774;-84
2022/07/04 04:08:17;;;;;;;4.30;2.00;;;;;;;;;;5005779;28;20115;-84
2022/07/04 04:10:43;;;;;;;3.03;2.00;;;;;;;;;;5009144;28;20042;-82
2022/07/04 04:13:09;;;;;;;4.18;2.10;;;;;;;;;;5006212;28;20042;-86
2022/07/04 04:15:35;;;;;;;6.70;2.17;;;;;;;;;;5006955;28;20050;-84
2022/07/04 04:18:01;;;;;;;2.30;2.03;;;;;;;;;;5006291;28;20045;-84
2022/07/04 04:20:27;;;;;;;4.95;2.10;;;;;;;;;;5003256;28;20089;-85
2022/07/04 04:22:53;;;;;;;3.55;2.08;;;;;;;;;;5002897;28;20046;-84
2022/07/04 04:25:19;;;;;;;3.22;2.10;;;;;;;;;;5005650;28;20458;-86
2022/07/04 04:27:45;;;;;;;4.30;2.40;;;;;;;;;;5003391;28;20445;-83
2022/07/04 04:30:11;;;;;;;4.07;2.20;;;;;;;;;;5002054;28;20133;-84
2022/07/04 04:32:37;;;;;;;2.85;2.10;;;;;;;;;;5025653;28;20052;-83
2022/07/04 04:35:04;;;;;;;4.53;2.55;;;;;;;;;;5008821;28;20042;-85
2022/07/04 04:37:30;;;;;;;3.88;2.20;;;;;;;;;;5005121;28;20540;-86
2022/07/04 04:39:56;;;;;;;3.83;2.33;;;;;;;;;;5007186;28;20034;-83
2022/07/04 04:42:22;;;;;;;5.30;2.25;;;;;;;;;;5009831;28;20050;-85
2022/07/04 04:44:48;;;;;;;2.75;1.88;;;;;;;;;;5004700;28;20074;-84
2022/07/04 04:47:14;;;;;;;4.00;2.10;;;;;;;;;;5007931;28;20125;-87
2022/07/04 04:49:40;;;;;;;3.80;2.03;;;;;;;;;;5007378;28;20069;-83
2022/07/04 04:52:06;;;;;;;3.75;2.22;;;;;;;;;;5005361;28;20073;-85
2022/07/04 04:54:33;;;;;;;4.25;2.20;;;;;;;;;;5011701;28;20133;-83
2022/07/04 04:56:59;;;;;;;3.55;1.73;;;;;;;;;;5010509;28;20532;-86
2022/07/04 04:59:25;;;;;;;2.60;2.03;;;;;;;;;;5008527;28;20044;-86
2022/07/04 05:01:51;;;;;;;5.15;2.22;;;;;;;;;;5007129;28;20132;-86
2022/07/04 05:04:18;;;;;;;3.30;2.22;;;;;;;;;;5008794;28;20046;-83
2022/07/04 05:06:44;;;;;;;4.25;2.10;;;;;;;;;;5010359;28;20397;-86
2022/07/04 05:09:10;;;;;;;6.03;2.13;;;;;;;;;;5009776;28;20045;-86
2022/07/04 05:11:36;;;;;;;5.20;1.95;;;;;;;;;;5009576;28;20137;-87
2022/07/04 05:14:02;;;;;;;3.45;2.15;;;;;;;;;;5009098;28;20054;-85
2022/07/04 05:16:29;;;;;;;2.72;2.20;;;;;;;;;;5008555;28;20464;-86
2022/07/04 05:18:55;;;;;;;7.97;5.60;;;;;;;;;;5009072;28;20133;-83
2022/07/04 05:21:21;;;;;;;5.07;2.40;;;;;;;;;;5008916;28;20133;-87
2022/07/04 05:23:47;;;;;;;3.80;2.20;;;;;;;;;;5011896;28;20072;-86
2022/07/04 05:26:13;;;;;;;3.25;2.20;;;;;;;;;;5002465;28;20042;-86
2022/07/04 05:28:39;;;;;;;3.60;2.10;;;;;;;;;;5008333;28;20068;-85
2022/07/04 05:31:05;;;;;;;3.72;2.00;;;;;;;;;;5002388;28;20076;-84
2022/07/04 05:33:31;;;;;;;1.90;1.80;;;;;;;;;;5001825;28;20061;-86
2022/07/04 05:35:57;;;;;;;2.83;2.10;;;;;;;;;;5009016;28;20100;-88
2022/07/04 05:38:23;;;;;;;2.33;1.65;;;;;;;;;;5009341;28;20042;-86
2022/07/04 05:40:49;;;;;;;5.88;2.40;;;;;;;;;;5005791;28;20587;-87
2022/07/04 05:43:15;;;;;;;1.92;1.80;;;;;;;;;;5007097;28;20060;-84
2022/07/04 05:45:41;;;;;;;3.58;1.98;;;;;;;;;;5008020;28;20053;-85
2022/07/04 05:48:07;;;;;;;2.60;1.80;;;;;;;;;;5006100;28;20489;-81
2022/07/04 05:50:33;;;;;;;4.40;1.90;;;;;;;;;;5005811;28;20045;-80
2022/07/04 05:52:59;;;;;;;1.92;1.75;;;;;;;;;;5004338;28;20045;-81
2022/07/04 05:55:25;;;;;;;2.95;1.85;;;;;;;;;;5001090;28;20084;-81
2022/07/04 05:57:53;;;;;;;6.57;2.08;;;;;;;;;;5007074;28;20211;-81
2022/07/04 06:00:19;;;;;;;6.07;2.17;;;;;;;;;;5000868;28;20068;-82
2022/07/04 06:02:45;;;;;;;2.15;1.67;;;;;;;;;;5005780;28;20238;-81
2022/07/04 06:05:11;;;;;;;3.22;1.83;;;;;;;;;;5007530;28;20053;-81
2022/07/04 06:07:37;;;;;;;1.95;1.70;;;;;;;;;;5005479;28;20390;-82
2022/07/04 06:10:04;;;;;;;2.47;1.70;;;;;;;;;;5006543;28;20046;-80
2022/07/04 06:12:30;;;;;;;6.40;1.90;;;;;;;;;;5007586;28;20056;-81
2022/07/04 06:14:56;;;;;;;3.70;1.90;;;;;;;;;;5007466;28;20042;-82
2022/07/04 06:17:22;;;;;;;2.25;1.70;;;;;;;;;;5005531;28;20111;-82
2022/07/04 06:19:48;;;;;;;3.92;1.90;;;;;;;;;;5005308;28;21458;-81
2022/07/04 06:22:14;;;;;;;3.25;1.80;;;;;;;;;;5003006;28;20414;-81
2022/07/04 06:24:40;;;;;;;3.22;1.70;;;;;;;;;;5004391;28;20406;-81
2022/07/04 06:27:06;;;;;;;5.57;2.00;;;;;;;;;;5008554;28;20042;-83
2022/07/04 06:29:32;;;;;;;4.05;1.80;;;;;;;;;;5006209;28;20042;-81
2022/07/04 06:31:58;;;;;;;3.25;1.55;;;;;;;;;;5006611;28;20057;-81
2022/07/04 06:37:09;;;;;;;2.92;1.88;;;;;;;;;;5020651;28;20077;-80
2022/07/04 06:39:35;;;;;;;3.80;1.92;;;;;;;;;;5007911;28;20563;-80
2022/07/04 06:42:04;;;;;;;2.85;1.70;;;;;;;;;;5009704;28;20084;-81
2022/07/04 06:44:33;;;;;;;2.80;1.60;;;;;;;;;;5009506;28;20121;-80
2022/07/04 06:46:59;;;;;;;4.05;1.70;;;;;;;;;;5009727;28;20042;-81
2022/07/04 06:49:25;;;;;;;3.58;1.70;;;;;;;;;;5010195;28;20132;-80
2022/07/04 06:51:51;;;;;;;2.13;1.77;;;;;;;;;;5011596;28;20128;-80
2022/07/04 06:54:17;;;;;;;3.05;1.90;;;;;;;;;;5011728;28;20196;-81
2022/07/04 06:56:43;;;;;;;3.80;1.70;;;;;;;;;;5011790;28;20045;-81
2022/07/04 06:59:09;;;;;;;3.80;1.92;;;;;;;;;;5012540;28;20053;-82
2022/07/04 07:01:35;;;;;;;1.70;1.60;;;;;;;;;;5010225;28;20057;-79
2022/07/04 07:04:01;;;;;;;2.08;1.83;;;;;;;;;;5013527;28;20404;-80
2022/07/04 07:06:27;;;;;;;2.78;1.90;;;;;;;;;;5011493;28;20045;-80
2022/07/04 07:08:53;;;;;;;3.95;1.98;;;;;;;;;;5011268;28;20135;-80
2022/07/04 07:11:19;;;;;;;4.55;2.05;;;;;;;;;;5007661;28;20041;-82
2022/07/04 07:13:50;;;;;;;2.55;1.73;;;;;;;;;;5009156;28;20057;-79
2022/07/04 07:16:17;;;;;;;2.33;1.90;;;;;;;;;;5005277;28;20161;-79
2022/07/04 07:18:43;;;;;;;2.53;1.80;;;;;;;;;;5008707;28;20088;-80
2022/07/04 07:21:09;;;;;;;3.72;1.90;;;;;;;;;;5008404;28;20132;-80
2022/07/04 07:23:39;;;;;;;4.20;1.98;;;;;;;;;;5009284;28;20084;-78
2022/07/04 07:26:05;;;;;;;3.33;2.10;;;;;;;;;;5006480;28;20057;-79
2022/07/04 07:28:31;;;;;;;4.10;2.22;;;;;;;;;;5024399;28;20702;-79
2022/07/04 07:30:57;;;;;;;3.50;2.10;;;;;;;;;;5003811;28;20100;-78
2022/07/04 07:33:23;;;;;;;4.32;2.22;;;;;;;;;;5008330;28;20053;-79
2022/07/04 07:35:49;;;;;;;2.65;1.80;;;;;;;;;;5007348;28;20085;-79
2022/07/04 07:38:15;;;;;;;5.30;2.30;;;;;;;;;;5007819;28;20065;-80
2022/07/04 07:40:41;;;;;;;4.20;2.10;;;;;;;;;;5006888;28;20044;-79
2022/07/04 07:43:08;;;;;;;2.33;2.10;;;;;;;;;;5029981;28;20542;-80
2022/07/04 07:45:34;;;;;;;3.15;2.10;;;;;;;;;;5008309;28;20042;-80
2022/07/04 07:48:00;;;;;;;4.43;2.13;;;;;;;;;;5008292;28;20495;-80
2022/07/04 07:50:26;;;;;;;6.70;2.10;;;;;;;;;;5005229;28;20045;-79
2022/07/04 07:52:52;;;;;;;3.10;1.90;;;;;;;;;;5007921;28;20547;-80
2022/07/04 07:55:18;;;;;;;4.38;1.90;;;;;;;;;;5009294;28;20121;-80
2022/07/04 07:57:44;;;;;;;5.95;2.20;;;;;;;;;;5003059;28;20124;-77
2022/07/04 08:00:11;;;;;;;3.47;1.88;;;;;;;;;;5006938;28;20037;-79
2022/07/04 08:05:22;;;;;;;4.65;2.15;;;;;;;;;;5009268;28;20058;-79
2022/07/04 08:07:48;;;;;;;4.13;1.90;;;;;;;;;;5010222;28;20045;-79
2022/07/04 08:10:14;;;;;;;2.50;1.92;;;;;;;;;;5010011;28;20048;-80
2022/07/04 08:12:40;;;;;;;2.75;1.80;;;;;;;;;;5009708;28;20394;-79
2022/07/04 08:15:06;;;;;;;5.07;2.00;;;;;;;;;;5010546;28;20521;-78
2022/07/04 08:17:33;;;;;;;2.03;1.85;;;;;;;;;;5008207;28;20056;-79
2022/07/04 08:19:59;;;;;;;2.78;2.00;;;;;;;;;;5010363;28;20038;-79
2022/07/04 08:22:25;;;;;;;4.05;2.00;;;;;;;;;;5006580;28;20085;-80
2022/07/04 08:24:51;;;;;;;2.70;1.80;;;;;;;;;;5006615;28;20128;-81
2022/07/04 08:27:17;;;;;;;2.00;1.80;;;;;;;;;;5002245;28;20112;-81
2022/07/04 08:29:43;;;;;;;5.30;1.92;;;;;;;;;;5008290;28;20481;-81
2022/07/04 08:32:09;;;;;;;3.58;2.05;;;;;;;;;;5010132;28;20046;-82
2022/07/04 08:34:35;;;;;;;3.10;1.90;;;;;;;;;;5008145;28;20374;-80
2022/07/04 08:37:01;;;;;;;2.78;2.00;;;;;;;;;;5008533;28;20503;-81
2022/07/04 08:39:28;;;;;;;4.05;1.90;;;;;;;;;;5007554;28;20096;-83
2022/07/04 08:41:56;;;;;;;3.75;1.80;;;;;;;;;;5006076;28;20050;-80
2022/07/04 08:44:24;;;;;;;7.30;2.00;;;;;;;;;;5010478;28;20141;-82
2022/07/04 08:46:51;;;;;;;5.53;1.95;;;;;;;;;;5009758;28;20053;-79
2022/07/04 08:49:30;;;;;;;3.20;1.90;;;;;;;;;;5008605;28;20125;-80
2022/07/04 08:52:00;;;;;;;3.88;2.28;;;;;;;;;;5001998;28;20474;-81
2022/07/04 08:59:58;;;;;;;5.45;1.85;;;;;;;;;;5008976;28;20045;-81
2022/07/04 09:02:25;;;;;;;3.03;1.70;;;;;;;;;;5006914;28;20515;-81
2022/07/04 09:04:51;;;;;;;2.63;1.75;;;;;;;;;;5009673;28;20038;-80
2022/07/04 09:07:18;;;;;;;3.80;1.80;;;;;;;;;;5008031;28;20099;-81
2022/07/04 09:09:44;;;;;;;2.45;1.85;;;;;;;;;;5005479;28;20053;-79
2022/07/04 09:12:10;;;;;;;4.82;2.20;;;;;;;;;;5008334;28;20033;-80
2022/07/04 09:14:36;;;;;;;6.60;1.75;;;;;;;;;;5007763;28;20048;-81
2022/07/04 09:17:03;;;;;;;3.38;1.90;;;;;;;;;;5008779;28;20053;-80
2022/07/04 09:19:29;;;;;;;2.50;1.90;;;;;;;;;;5007621;28;20566;-80
2022/07/04 09:21:55;;;;;;;3.53;1.98;;;;;;;;;;5007304;28;20061;-81
2022/07/04 09:24:41;;;;;;;3.42;2.05;;;;;;;;;;5005248;28;20203;-81
2022/07/04 09:27:07;;;;;;;5.85;1.85;;;;;;;;;;5005798;28;20144;-82
2022/07/04 09:29:34;;;;;;;7.00;2.00;;;;;;;;;;5009052;28;20113;-81
2022/07/04 09:32:00;;;;;;;4.78;1.70;;;;;;;;;;5006798;28;20065;-81
2022/07/04 09:34:27;;;;;;;4.53;1.73;;;;;;;;;;5008861;28;20658;-80
2022/07/04 09:36:55;;;;;;;5.03;1.70;;;;;;;;;;5008805;28;20046;-81
2022/07/04 09:39:21;;;;;;;3.15;1.80;;;;;;;;;;5001146;28;20064;-80
2022/07/04 09:41:53;;;;;;;6.57;2.25;;;;;;;;;;5009567;28;20049;-80
2022/07/04 09:44:20;;;;;;;4.13;1.77;;;;;;;;;;5009537;28;20046;-80
2022/07/04 09:46:46;;;;;;;4.72;2.05;;;;;;;;;;5009074;28;20088;-80
2022/07/04 09:49:13;;;;;;;1.55;1.42;;;;;;;;;;5009745;28;20046;-80
2022/07/04 09:51:43;;;;;;;1.98;1.60;;;;;;;;;;5007945;28;20084;-80
2022/07/04 09:54:13;;;;;;;4.05;1.80;;;;;;;;;;5005961;28;20042;-79
2022/07/04 09:56:43;;;;;;;2.95;1.80;;;;;;;;;;5003723;28;20057;-80
2022/07/04 09:59:09;;;;;;;2.72;1.80;;;;;;;;;;5005880;28;20045;-80
2022/07/04 10:01:35;;;;;;;3.28;1.50;;;;;;;;;;5006166;28;20052;-80
2022/07/04 10:04:03;;;;;;;3.22;1.73;;;;;;;;;;5007449;28;20049;-80
2022/07/04 10:06:32;;;;;;;3.53;1.70;;;;;;;;;;5007339;28;20054;-80
2022/07/04 10:09:06;;;;;;;4.25;1.90;;;;;;;;;;5004573;28;20061;-81
2022/07/04 10:11:36;;;;;;;3.80;1.90;;;;;;;;;;5005364;28;20050;-80
2022/07/04 10:14:03;;;;;;;3.53;1.60;;;;;;;;;;5006407;28;20077;-80
2022/07/04 10:16:30;;;;;;;8.52;1.60;;;;;;;;;;5002412;28;20050;-81
2022/07/04 10:18:56;;;;;;;6.40;1.95;;;;;;;;;;5008687;28;20038;-80
2022/07/04 10:21:23;;;;;;;2.58;1.65;;;;;;;;;;5006155;28;20415;-80
2022/07/04 10:23:51;;;;;;;5.85;1.88;;;;;;;;;;5002966;28;20050;-80
2022/07/04 10:26:21;;;;;;;3.85;1.70;;;;;;;;;;5009198;28;20125;-81
2022/07/04 10:28:48;;;;;;;3.90;1.63;;;;;;;;;;5006508;28;20037;-81
2022/07/04 10:31:14;;;;;;;3.63;1.67;;;;;;;;;;5011754;28;20100;-80
2022/07/04 10:33:41;;;;;;;5.65;1.70;;;;;;;;;;5005629;28;20042;-79
2022/07/04 10:36:18;;;;;;;3.17;1.70;;;;;;;;;;5013597;28;20467;-80
2022/07/04 10:38:49;;;;;;;2.92;1.50;;;;;;;;;;5009206;28;20169;-85
2022/07/04 10:41:15;;;;;;;4.15;1.65;;;;;;;;;;5007402;28;20053;-80
2022/07/04 10:43:55;;;;;;;3.05;1.60;;;;;;;;;;5011818;28;20053;-80
2022/07/04 10:46:24;;;;;;;2.88;1.73;;;;;;;;;;5010262;28;20053;-81
2022/07/04 10:48:56;;;;;;;4.78;1.80;;;;;;;;;;5014041;28;20100;-80
2022/07/04 10:51:45;;;;;;;2.83;1.63;;;;;;;;;;5012839;28;20132;-80
2022/07/04 10:54:14;;;;;;;5.40;1.67;;;;;;;;;;5007115;28;20110;-80
2022/07/04 10:56:46;;;;;;;3.30;1.33;;;;;;;;;;5027977;28;20103;-81
2022/07/04 10:59:21;;;;;;;1.60;1.50;;;;;;;;;;5012046;28;20069;-81
2022/07/04 11:02:01;;;;;;;2.97;1.67;;;;;;;;;;5010839;28;20042;-79
2022/07/04 11:04:46;;;;;;;1.95;1.40;;;;;;;;;;5011555;28;20042;-79
2022/07/04 11:07:12;;;;;;;6.13;1.70;;;;;;;;;;5011829;28;20038;-79
2022/07/04 11:09:38;;;;;;;2.10;1.58;;;;;;;;;;5008172;28;20038;-78
2022/07/04 11:12:06;;;;;;;1.63;1.30;;;;;;;;;;5012205;28;20044;-79
2022/07/04 11:14:39;;;;;;;3.40;1.70;;;;;;;;;;5007680;28;20046;-80
2022/07/04 11:17:06;;;;;;;1.90;1.40;;;;;;;;;;5009314;28;20112;-79
2022/07/04 11:19:32;;;;;;;3.55;1.77;;;;;;;;;;5005851;28;20084;-80
2022/07/04 11:21:59;;;;;;;4.78;1.50;;;;;;;;;;5013447;28;20433;-80
2022/07/04 11:24:26;;;;;;;2.47;1.35;;;;;;;;;;5009342;28;20056;-79
2022/07/04 11:26:52;;;;;;;3.15;1.48;;;;;;;;;;5011915;28;20971;-80
2022/07/04 11:29:18;;;;;;;7.25;1.42;;;;;;;;;;5005686;28;20034;-79
2022/07/04 11:31:49;;;;;;;4.70;1.88;;;;;;;;;;5010469;28;20038;-80
2022/07/04 11:34:15;;;;;;;3.78;1.60;;;;;;;;;;5011124;28;20038;-80
2022/07/04 11:36:43;;;;;;;3.72;1.77;;;;;;;;;;5010319;28;20042;-80
2022/07/04 11:39:11;;;;;;;2.13;1.63;;;;;;;;;;5008190;28;20046;-80
2022/07/04 11:47:16;;;;;;;4.75;1.80;;;;;;;;;;5022343;28;20070;-80
2022/07/04 11:49:49;;;;;;;4.80;1.50;;;;;;;;;;5007232;28;20053;-81
2022/07/04 11:52:16;;;;;;;4.90;1.52;;;;;;;;;;5011209;28;20042;-80
2022/07/04 11:54:43;;;;;;;6.68;1.60;;;;;;;;;;5006723;28;20109;-81
2022/07/04 11:57:21;;;;;;;3.25;1.30;;;;;;;;;;5011508;28;20162;-79
2022/07/04 11:59:55;;;;;;;2.40;1.25;;;;;;;;;;5005143;28;20405;-82
2022/07/04 12:02:21;;;;;;;4.70;1.55;;;;;;;;;;5010174;28;20129;-80
2022/07/04 12:04:47;;;;;;;1.92;1.45;;;;;;;;;;5010769;28;20038;-80
2022/07/04 12:07:14;;;;;;;6.20;1.75;;;;;;;;;;5010083;28;20125;-80
2022/07/04 12:09:40;;;;;;;3.03;1.20;;;;;;;;;;5011591;28;20405;-80
2022/07/04 12:12:06;;;;;;;4.88;1.30;;;;;;;;;;5010013;28;20034;-79
2022/07/04 12:14:33;;;;;;;4.13;1.20;;;;;;;;;;5012916;28;20397;-79
2022/07/04 12:17:18;;;;;;;4.18;1.30;;;;;;;;;;5009607;28;20045;-79
2022/07/04 12:20:01;;;;;;;8.10;1.63;;;;;;;;;;5007993;28;20053;-79
2022/07/04 12:22:37;;;;;;;4.13;1.48;;;;;;;;;;5010619;28;20069;-80
2022/07/04 12:25:05;;;;;;;4.40;1.48;;;;;;;;;;5012174;28;20496;-79
2022/07/04 12:27:32;;;;;;;6.82;1.50;;;;;;;;;;5006620;28;20189;-79
2022/07/04 12:29:59;;;;;;;2.35;1.48;;;;;;;;;;5007581;28;20046;-79
2022/07/04 12:32:43;;;;;;;5.30;1.50;;;;;;;;;;5010946;28;20296;-80
2022/07/04 12:35:09;;;;;;;4.80;1.33;;;;;;;;;;5008039;28;20131;-79
2022/07/04 12:37:35;;;;;;;1.25;1.15;;;;;;;;;;5010419;28;20042;-79
2022/07/04 12:40:08;;;;;;;3.33;1.25;;;;;;;;;;5012082;28;20038;-79
2022/07/04 12:42:34;;;;;;;4.85;1.50;;;;;;;;;;5010886;28;20127;-80
2022/07/04 12:45:06;;;;;;;7.07;1.48;;;;;;;;;;5006844;28;20089;-80
2022/07/04 12:47:32;;;;;;;3.25;1.55;;;;;;;;;;5008044;28;20568;-79
2022/07/04 12:49:58;;;;;;;1.55;1.10;;;;;;;;;;5000052;28;20050;-79
2022/07/04 12:52:28;;;;;;;6.53;1.40;;;;;;;;;;5010152;28;20053;-79
2022/07/04 12:55:09;;;;;;;4.13;1.40;;;;;;;;;;5011500;28;20405;-79
2022/07/04 12:57:36;;;;;;;2.65;1.40;;;;;;;;;;5011464;28;20041;-81
2022/07/04 13:00:02;;;;;;;5.40;1.38;;;;;;;;;;5007165;28;20057;-80
2022/07/04 13:02:28;;;;;;;4.57;1.50;;;;;;;;;;5009812;28;20249;-76
2022/07/04 13:04:55;;;;;;;2.20;1.30;;;;;;;;;;5009956;28;20077;-78
2022/07/04 13:07:21;;;;;;;2.67;1.48;;;;;;;;;;5011688;28;20077;-79
2022/07/04 13:09:47;;;;;;;4.53;1.25;;;;;;;;;;5011234;28;20041;-79
2022/07/04 13:12:25;;;;;;;4.35;1.50;;;;;;;;;;5003824;28;20042;-79
2022/07/04 13:14:56;;;;;;;3.97;1.48;;;;;;;;;;5003566;28;20389;-79
2022/07/04 13:17:22;;;;;;;2.53;1.30;;;;;;;;;;5008419;28;20060;-79
2022/07/04 13:19:48;;;;;;;5.65;1.63;;;;;;;;;;5004318;28;20123;-79
2022/07/04 13:22:14;;;;;;;4.18;1.58;;;;;;;;;;5006485;28;20062;-79
2022/07/04 13:24:40;;;;;;;5.22;1.50;;;;;;;;;;5006934;28;20079;-80
2022/07/04 13:27:06;;;;;;;1.95;1.13;;;;;;;;;;5008854;28;20132;-78
2022/07/04 13:29:32;;;;;;;8.70;1.70;;;;;;;;;;5008021;28;20029;-79
2022/07/04 13:31:58;;;;;;;2.45;1.00;;;;;;;;;;5003782;28;20084;-80
2022/07/04 13:34:24;;;;;;;5.60;1.40;;;;;;;;;;5004447;28;20042;-79
2022/07/04 13:36:51;;;;;;;2.80;1.30;;;;;;;;;;5006571;28;20073;-79
2022/07/04 13:39:17;;;;;;;3.13;1.40;;;;;;;;;;5007625;28;20050;-78
2022/07/04 13:41:43;;;;;;;5.93;1.70;;;;;;;;;;5009328;28;20172;-79
2022/07/04 13:44:12;;;;;;;2.28;1.25;;;;;;;;;;5004678;28;20053;-78
2022/07/04 13:46:38;;;;;;;2.70;1.30;;;;;;;;;;5012471;28;20042;-77
2022/07/04 13:49:05;;;;;;;4.72;1.40;;;;;;;;;;5005870;28;20478;-80
2022/07/04 13:51:32;;;;;;;2.08;1.23;;;;;;;;;;5002837;28;20057;-76
2022/07/04 13:53:58;;;;;;;3.28;1.35;;;;;;;;;;5009282;28;20050;-81
2022/07/04 13:56:45;;;;;;;3.70;1.30;;;;;;;;;;5006193;28;20085;-80
2022/07/04 13:59:10;;;;;;;3.75;1.40;;;;;;;;;;4989627;28;20121;-79
2022/07/04 14:01:37;;;;;;;3.72;1.27;;;;;;;;;;5000518;28;20101;-80
2022/07/04 14:04:03;;;;;;;4.55;1.30;;;;;;;;;;5005590;28;20038;-81
2022/07/04 14:06:30;;;;;;;5.82;1.38;;;;;;;;;;5010846;28;20042;-80
2022/07/04 14:08:56;;;;;;;4.38;1.48;;;;;;;;;;5010005;28;20500;-80
2022/07/04 14:11:22;;;;;;;3.55;1.30;;;;;;;;;;5010302;28;20053;-81
2022/07/04 14:13:48;;;;;;;2.40;1.15;;;;;;;;;;5006811;28;20378;-80
2022/07/04 14:16:15;;;;;;;1.77;1.10;;;;;;;;;;5005222;28;20120;-81
2022/07/04 14:18:41;;;;;;;1.17;1.08;;;;;;;;;;5006467;28;20046;-80
2022/07/04 14:21:07;;;;;;;4.90;1.30;;;;;;;;;;5005602;28;20054;-84
2022/07/04 14:23:42;;;;;;;5.55;1.70;;;;;;;;;;5002714;28;20406;-86
2022/07/04 14:26:09;;;;;;;4.30;1.52;;;;;;;;;;5009503;28;20159;-87
2022/07/04 14:28:35;;;;;;;5.75;1.70;;;;;;;;;;5010507;28;20057;-79
2022/07/04 14:31:01;;;;;;;6.30;1.50;;;;;;;;;;5008873;28;20041;-80
2022/07/04 14:33:27;;;;;;;2.20;1.40;;;;;;;;;;5006535;28;20050;-79
2022/07/04 14:35:53;;;;;;;4.03;1.42;;;;;;;;;;5006973;28;20129;-82
2022/07/04 14:38:20;;;;;;;2.55;1.40;;;;;;;;;;5006374;28;20172;-82
2022/07/04 14:40:49;;;;;;;4.47;1.40;;;;;;;;;;5001596;28;20049;-79
2022/07/04 14:43:19;;;;;;;1.48;1.13;;;;;;;;;;5009194;28;20493;-84
2022/07/04 14:45:46;;;;;;;2.20;1.33;;;;;;;;;;4995727;28;20053;-84
2022/07/04 14:48:12;;;;;;;3.67;1.30;;;;;;;;;;5004880;28;20034;-84
2022/07/04 14:50:41;;;;;;;4.15;1.25;;;;;;;;;;5000905;28;20374;-81
2022/07/04 14:53:07;;;;;;;2.53;1.27;;;;;;;;;;5016543;28;20041;-80
2022/07/04 14:55:33;;;;;;;1.90;1.23;;;;;;;;;;5006990;28;20042;-82
2022/07/04 14:57:59;;;;;;;1.30;1.20;;;;;;;;;;5008071;28;20060;-82
2022/07/04 15:00:26;;;;;;;1.73;0.93;;;;;;;;;;5004870;28;20809;-80
2022/07/04 15:02:52;;;;;;;3.38;1.50;;;;;;;;;;5011322;28;20468;-83